Time;durP1;ratioP1;P1;durP2;ratioP2;P2;SDS_P1;SDS_P2;PMS_P1;PMS_P2;Temp;Humidity;BMP_temperature;BMP_pressure;BME280_temperature;BME280_humidity;BME280_pressure;Samples;Min_cycle;Max_cycle;Signal;HPM_P1;HPM_P2
2022/08/08 00:01:02;;;;;;;1.20;1.10;;;15.30;99.90;;;;;;4914948;29;20428;-71
2022/08/08 00:03:46;;;;;;;2.80;1.33;;;15.30;99.90;;;;;;4915185;29;20433;-70
2022/08/08 00:06:23;;;;;;;1.90;1.20;;;15.30;99.90;;;;;;4915473;29;20424;-71
2022/08/08 00:09:01;;;;;;;1.30;0.90;;;15.20;99.90;;;;;;4915848;29;20841;-72
2022/08/08 00:11:40;;;;;;;1.30;0.90;;;15.20;99.90;;;;;;4914711;29;21053;-70
2022/08/08 00:14:29;;;;;;;2.00;1.00;;;15.10;99.90;;;;;;4915308;29;20546;-70
2022/08/08 00:17:10;;;;;;;1.07;0.97;;;15.10;99.90;;;;;;4914935;29;20406;-71
2022/08/08 00:19:43;;;;;;;1.30;1.20;;;15.10;99.90;;;;;;4915373;29;20449;-71
2022/08/08 00:22:24;;;;;;;0.90;0.90;;;15.00;99.90;;;;;;4914777;29;20509;-71
2022/08/08 00:24:56;;;;;;;1.07;1.00;;;14.90;99.90;;;;;;4915453;29;20410;-71
2022/08/08 00:27:25;;;;;;;0.90;0.90;;;14.90;99.90;;;;;;4915234;29;20425;-71
2022/08/08 00:29:59;;;;;;;1.10;0.90;;;14.90;99.90;;;;;;4914602;29;20419;-71
2022/08/08 00:32:30;;;;;;;0.90;0.90;;;14.90;99.90;;;;;;4914049;29;20457;-70
2022/08/08 00:35:29;;;;;;;0.97;0.87;;;14.80;99.90;;;;;;4915085;29;20418;-71
2022/08/08 00:38:07;;;;;;;1.10;1.10;;;14.80;99.90;;;;;;4915127;29;20413;-72
2022/08/08 00:41:23;;;;;;;1.20;0.97;;;14.90;99.90;;;;;;4914346;29;20406;-71
2022/08/08 00:44:25;;;;;;;1.57;1.00;;;14.90;99.90;;;;;;4882434;29;20435;-71
2022/08/08 00:47:12;;;;;;;2.33;0.93;;;14.80;99.90;;;;;;4915115;29;20919;-71
2022/08/08 00:50:02;;;;;;;1.67;1.30;;;14.80;99.90;;;;;;4915046;29;20513;-71
2022/08/08 00:52:43;;;;;;;1.10;0.83;;;14.80;99.90;;;;;;4913876;29;20449;-71
2022/08/08 00:55:29;;;;;;;0.97;0.97;;;14.80;99.90;;;;;;4915050;29;20438;-71
2022/08/08 00:58:26;;;;;;;2.03;1.30;;;14.70;99.90;;;;;;4914237;29;20514;-72
2022/08/08 02:32:03;;;;;;;1.00;1.00;;;13.90;99.90;;;;;;5732180;23;20865;-72
2022/08/08 02:34:40;;;;;;;1.70;1.00;;;13.80;99.90;;;;;;4910302;29;20433;-72
2022/08/08 02:37:47;;;;;;;1.00;1.00;;;13.80;99.90;;;;;;4911285;29;20421;-73
2022/08/08 02:40:46;;;;;;;1.27;1.07;;;13.80;99.90;;;;;;4913978;29;20442;-70
2022/08/08 02:43:28;;;;;;;1.80;1.67;;;13.80;99.90;;;;;;4897999;29;20419;-73
2022/08/08 02:46:29;;;;;;;1.93;1.30;;;13.80;99.90;;;;;;4898388;29;20427;-71
2022/08/08 02:49:29;;;;;;;0.90;0.90;;;13.70;99.90;;;;;;4896615;29;20430;-72
2022/08/08 02:52:08;;;;;;;0.87;0.87;;;13.70;99.90;;;;;;4896893;29;20470;-73
2022/08/08 02:54:44;;;;;;;1.53;1.03;;;13.60;99.90;;;;;;4897958;29;20415;-70
2022/08/08 02:57:35;;;;;;;1.07;1.00;;;13.60;99.90;;;;;;4896679;29;20431;-72
2022/08/08 03:00:19;;;;;;;2.10;1.20;;;13.50;99.90;;;;;;4897324;29;20522;-72
2022/08/08 03:02:57;;;;;;;1.47;1.10;;;13.50;99.90;;;;;;4896530;29;20430;-72
2022/08/08 03:05:51;;;;;;;2.43;1.40;;;13.50;99.90;;;;;;4897566;29;20406;-73
2022/08/08 03:08:38;;;;;;;2.70;1.03;;;13.40;99.90;;;;;;4897439;29;20430;-72
2022/08/08 03:11:31;;;;;;;1.83;1.33;;;13.40;99.90;;;;;;4897009;29;20467;-73
2022/08/08 03:14:30;;;;;;;1.20;1.10;;;13.40;99.90;;;;;;4897863;29;20411;-72
2022/08/08 03:17:23;;;;;;;1.90;1.23;;;13.40;99.90;;;;;;4897346;29;20443;-72
2022/08/08 03:20:06;;;;;;;2.70;1.50;;;13.30;99.90;;;;;;4881067;29;20796;-72
2022/08/08 03:22:32;;;;;;;1.30;1.20;;;13.30;99.90;;;;;;4896237;29;20437;-71
2022/08/08 03:25:04;;;;;;;0.90;0.90;;;13.30;99.90;;;;;;4897426;29;20494;-72
2022/08/08 03:27:49;;;;;;;1.27;1.17;;;13.30;99.90;;;;;;4897569;29;20571;-73
2022/08/08 03:30:15;;;;;;;1.63;1.00;;;13.30;99.90;;;;;;4896826;29;20467;-71
2022/08/08 03:35:27;;;;;;;1.60;1.50;;;13.30;99.90;;;;;;4897425;29;20457;-73
2022/08/08 03:37:52;;;;;;;1.60;1.50;;;13.30;99.90;;;;;;4897176;29;20419;-73
2022/08/08 03:40:20;;;;;;;1.50;1.27;;;13.30;99.90;;;;;;4896687;29;20887;-73
2022/08/08 03:42:47;;;;;;;6.40;1.37;;;13.30;99.90;;;;;;4896439;29;20538;-72
2022/08/08 03:45:24;;;;;;;1.53;1.23;;;13.30;99.90;;;;;;4897294;29;20850;-70
2022/08/08 03:47:56;;;;;;;2.40;1.10;;;13.30;99.90;;;;;;4895511;29;20437;-72
2022/08/08 03:50:23;;;;;;;5.43;1.50;;;13.30;99.90;;;;;;4897227;29;20462;-72
2022/08/08 03:52:49;;;;;;;1.00;0.90;;;13.20;99.90;;;;;;4896845;29;20537;-72
2022/08/08 03:55:17;;;;;;;2.93;1.17;;;13.20;99.90;;;;;;4896927;29;20415;-70
2022/08/08 03:57:53;;;;;;;1.27;1.20;;;13.20;99.90;;;;;;4896667;29;20175;-73
2022/08/08 04:00:22;;;;;;;0.93;0.93;;;13.20;99.90;;;;;;4896896;29;20431;-71
2022/08/08 04:03:00;;;;;;;1.17;1.07;;;13.10;99.90;;;;;;4896452;29;20443;-73
2022/08/08 04:05:28;;;;;;;2.10;1.13;;;13.10;99.90;;;;;;4895180;29;20426;-73
2022/08/08 04:07:55;;;;;;;1.40;1.30;;;13.00;99.90;;;;;;4896782;29;20964;-72
2022/08/08 04:10:21;;;;;;;5.70;1.43;;;13.00;99.90;;;;;;4896388;29;20471;-73
2022/08/08 04:12:46;;;;;;;0.87;0.87;;;12.90;99.90;;;;;;4896023;29;20449;-73
2022/08/08 04:15:12;;;;;;;8.17;1.47;;;12.90;99.90;;;;;;4896541;29;20182;-73
2022/08/08 04:17:37;;;;;;;2.03;1.50;;;12.90;99.90;;;;;;4896072;29;20190;-73
2022/08/08 04:20:04;;;;;;;3.37;1.43;;;12.90;99.90;;;;;;4896608;29;20179;-72
2022/08/08 04:22:30;;;;;;;1.40;1.30;;;12.90;99.90;;;;;;4895805;29;20214;-72
2022/08/08 04:24:56;;;;;;;2.80;1.30;;;12.90;99.90;;;;;;4896310;29;20412;-73
2022/08/08 04:27:22;;;;;;;1.67;1.57;;;12.90;99.90;;;;;;4896502;29;20202;-73
2022/08/08 04:29:48;;;;;;;2.40;1.40;;;12.90;99.90;;;;;;4896267;29;20498;-73
2022/08/08 04:32:14;;;;;;;1.97;1.87;;;12.90;99.90;;;;;;4894585;29;20498;-72
2022/08/08 04:34:40;;;;;;;3.07;2.60;;;12.90;99.90;;;;;;4895459;29;20506;-72
2022/08/08 04:37:06;;;;;;;2.17;1.90;;;12.90;99.90;;;;;;4896201;29;20254;-73
2022/08/08 04:39:32;;;;;;;1.50;1.40;;;12.90;99.90;;;;;;4896259;29;20566;-73
2022/08/08 04:41:57;;;;;;;2.27;1.50;;;13.00;99.90;;;;;;4894894;29;20450;-73
2022/08/08 04:44:23;;;;;;;2.07;1.63;;;13.00;99.90;;;;;;4896183;29;20333;-72
2022/08/08 04:46:49;;;;;;;1.37;1.27;;;13.00;99.90;;;;;;4896316;29;20269;-72
2022/08/08 04:49:15;;;;;;;1.63;1.53;;;13.00;99.90;;;;;;4895476;29;20518;-71
2022/08/08 04:51:40;;;;;;;1.77;1.67;;;13.00;99.90;;;;;;4895180;29;20206;-71
2022/08/08 04:54:06;;;;;;;1.20;1.10;;;13.10;99.90;;;;;;4895818;29;20171;-72
2022/08/08 04:56:32;;;;;;;1.40;1.30;;;13.10;99.90;;;;;;4895866;29;20179;-72
2022/08/08 04:58:57;;;;;;;4.60;1.30;;;13.20;99.90;;;;;;4895305;29;20178;-73
2022/08/08 05:01:23;;;;;;;2.23;1.57;;;13.20;99.90;;;;;;4894811;29;20778;-71
2022/08/08 05:03:49;;;;;;;3.20;1.80;;;13.30;99.90;;;;;;4895781;29;20176;-73
2022/08/08 05:06:15;;;;;;;2.93;2.73;;;13.30;99.90;;;;;;4895556;29;20183;-72
2022/08/08 05:08:41;;;;;;;3.13;2.67;;;13.40;99.90;;;;;;4895784;29;20175;-73
2022/08/08 05:11:07;;;;;;;6.43;1.90;;;13.50;99.90;;;;;;4894437;29;20894;-72
2022/08/08 05:13:32;;;;;;;2.17;1.90;;;13.60;99.90;;;;;;4893850;29;20430;-71
2022/08/08 05:15:58;;;;;;;1.67;1.57;;;13.70;99.90;;;;;;4895660;29;20187;-73
2022/08/08 05:18:24;;;;;;;1.80;1.57;;;13.80;99.90;;;;;;4895662;29;20171;-73
2022/08/08 05:20:49;;;;;;;2.47;1.40;;;14.00;99.90;;;;;;4895021;29;20652;-73
2022/08/08 05:23:15;;;;;;;2.80;1.93;;;14.20;99.90;;;;;;4894621;29;20186;-71
2022/08/08 05:25:40;;;;;;;2.83;1.50;;;14.60;99.90;;;;;;4895649;29;20618;-73
2022/08/08 05:28:06;;;;;;;6.30;1.60;;;15.10;99.90;;;;;;4895237;29;20238;-73
2022/08/08 05:30:32;;;;;;;3.17;1.60;;;15.80;99.90;;;;;;4894107;29;20207;-70
2022/08/08 05:32:58;;;;;;;3.10;1.80;;;16.50;99.90;;;;;;4894834;29;20190;-73
2022/08/08 05:35:25;;;;;;;3.67;1.70;;;17.10;99.90;;;;;;4895609;29;20181;-72
2022/08/08 05:38:00;;;;;;;1.67;1.30;;;17.80;99.90;;;;;;4895353;29;20419;-73
2022/08/08 05:40:27;;;;;;;2.10;1.50;;;18.30;99.90;;;;;;4895069;29;20418;-73
2022/08/08 05:42:57;;;;;;;4.30;1.43;;;18.80;99.90;;;;;;4893968;29;20814;-71
2022/08/08 05:45:23;;;;;;;3.43;2.00;;;19.30;99.90;;;;;;4895554;29;20422;-73
2022/08/08 05:47:49;;;;;;;1.97;1.87;;;19.70;99.90;;;;;;4899517;29;20423;-73
2022/08/08 05:50:17;;;;;;;1.90;1.80;;;20.10;99.90;;;;;;4899043;29;20607;-71
2022/08/08 05:52:42;;;;;;;3.33;2.20;;;20.50;99.90;;;;;;4898344;29;20434;-71
2022/08/08 05:55:08;;;;;;;1.90;1.80;;;21.00;99.90;;;;;;4899252;29;20441;-71
2022/08/08 05:57:36;;;;;;;1.70;1.60;;;21.30;99.90;;;;;;4899084;29;20226;-70
2022/08/08 06:00:10;;;;;;;1.63;1.53;;;21.50;99.90;;;;;;4899110;29;20549;-70
2022/08/08 06:05:21;;;;;;;3.30;2.10;;;22.10;99.90;;;;;;4899104;29;20421;-71
2022/08/08 06:07:49;;;;;;;4.17;1.90;;;22.60;99.90;;;;;;4899016;29;20787;-72
2022/08/08 06:10:16;;;;;;;3.60;1.87;;;22.70;99.90;;;;;;4898530;29;20552;-71
2022/08/08 06:12:42;;;;;;;6.13;1.90;;;22.90;99.90;;;;;;4898193;29;20830;-72
2022/08/08 06:15:09;;;;;;;2.30;2.10;;;23.10;99.90;;;;;;4897861;29;20477;-73
2022/08/08 06:17:37;;;;;;;1.97;1.87;;;23.20;99.90;;;;;;4898856;29;20442;-72
2022/08/08 06:20:06;;;;;;;2.23;2.03;;;23.50;99.90;;;;;;4898731;29;20423;-71
2022/08/08 06:22:32;;;;;;;7.60;2.97;;;23.60;99.90;;;;;;4897919;29;20431;-73
2022/08/08 06:24:57;;;;;;;4.30;2.33;;;23.70;99.90;;;;;;4896784;29;20411;-71
2022/08/08 06:27:42;;;;;;;2.53;2.33;;;23.90;99.90;;;;;;4898725;29;20171;-72
2022/08/08 06:30:11;;;;;;;4.90;1.67;;;24.10;99.90;;;;;;4898461;29;20711;-72
2022/08/08 06:32:44;;;;;;;1.93;1.83;;;24.30;99.90;;;;;;4897872;29;20844;-71
2022/08/08 06:35:12;;;;;;;3.23;2.30;;;24.40;99.90;;;;;;4898471;29;20426;-72
2022/08/08 06:37:47;;;;;;;8.43;3.00;;;24.60;99.90;;;;;;4898224;29;20423;-71
2022/08/08 06:40:14;;;;;;;3.13;2.30;;;24.80;99.90;;;;;;4897964;29;20809;-69
2022/08/08 06:42:50;;;;;;;2.33;1.93;;;25.00;99.90;;;;;;4897791;29;20857;-72
2022/08/08 06:45:19;;;;;;;2.40;1.63;;;25.20;99.90;;;;;;4898315;29;20429;-72
2022/08/08 06:47:45;;;;;;;3.27;2.23;;;25.30;99.90;;;;;;4898357;29;20787;-72
2022/08/08 06:50:11;;;;;;;9.90;2.03;;;25.50;99.90;;;;;;4898048;29;20418;-72
2022/08/08 06:52:38;;;;;;;1.60;1.60;;;25.60;99.90;;;;;;4896909;29;20427;-72
2022/08/08 06:55:05;;;;;;;3.57;2.10;;;26.00;99.90;;;;;;4898133;29;20171;-72
2022/08/08 06:57:31;;;;;;;2.50;2.03;;;26.10;99.90;;;;;;4896910;29;20442;-72
2022/08/08 06:59:57;;;;;;;3.60;2.07;;;26.30;99.90;;;;;;4897858;29;20545;-72
2022/08/08 07:02:27;;;;;;;3.20;2.23;;;26.30;99.90;;;;;;4896773;29;20207;-72
2022/08/08 07:05:16;;;;;;;3.90;2.60;;;26.50;99.90;;;;;;4898022;29;20175;-73
2022/08/08 07:07:51;;;;;;;6.57;2.37;;;26.50;99.90;;;;;;4894949;29;20533;-72
2022/08/08 07:10:19;;;;;;;2.17;1.97;;;26.80;99.90;;;;;;4897717;29;20434;-72
2022/08/08 07:13:08;;;;;;;3.33;2.50;;;26.80;99.90;;;;;;4896553;29;20494;-72
2022/08/08 07:15:42;;;;;;;3.33;2.10;;;26.80;99.90;;;;;;4897877;29;20411;-70
2022/08/08 07:18:09;;;;;;;3.40;2.63;;;27.20;99.90;;;;;;4897885;29;20457;-73
2022/08/08 07:20:43;;;;;;;4.13;2.10;;;27.30;99.90;;;;;;4897174;29;20419;-72
2022/08/08 07:23:27;;;;;;;2.33;2.00;;;27.50;99.90;;;;;;4897246;29;20861;-72
2022/08/08 07:25:54;;;;;;;8.43;2.53;;;27.70;99.90;;;;;;4897758;29;20419;-73
2022/08/08 07:28:22;;;;;;;5.50;2.20;;;27.70;99.90;;;;;;4897390;29;20490;-72
2022/08/08 07:30:48;;;;;;;4.40;2.53;;;27.50;99.90;;;;;;4897236;29;20473;-72
2022/08/08 07:33:15;;;;;;;2.40;2.27;;;27.60;99.90;;;;;;4897017;29;20415;-70
2022/08/08 07:35:41;;;;;;;4.07;2.20;;;27.00;99.90;;;;;;4896973;29;20167;-72
2022/08/08 07:38:09;;;;;;;3.60;2.47;;;27.20;99.90;;;;;;4897224;29;20467;-73
2022/08/08 07:40:35;;;;;;;6.07;2.87;;;27.50;99.90;;;;;;4896399;29;20451;-70
2022/08/08 07:43:04;;;;;;;3.23;2.23;;;27.80;99.90;;;;;;4897014;29;20465;-72
2022/08/08 07:45:30;;;;;;;4.20;2.60;;;28.00;99.90;;;;;;4897155;29;20788;-73
2022/08/08 07:47:57;;;;;;;10.70;2.93;;;27.70;99.90;;;;;;4896816;29;20706;-71
2022/08/08 07:50:24;;;;;;;2.73;2.53;;;27.90;99.90;;;;;;4896825;29;20967;-71
2022/08/08 07:52:59;;;;;;;3.07;2.80;;;28.20;99.90;;;;;;4896852;29;20524;-73
2022/08/08 07:55:28;;;;;;;3.27;3.03;;;28.60;99.90;;;;;;4897096;29;20446;-73
2022/08/08 07:58:13;;;;;;;4.30;3.23;;;28.70;99.90;;;;;;4896721;29;20846;-69
2022/08/08 08:00:45;;;;;;;11.87;2.90;;;29.20;99.90;;;;;;4896372;29;20509;-72
2022/08/08 08:03:15;;;;;;;2.37;2.27;;;29.40;99.80;;;;;;4896760;29;20518;-73
2022/08/08 08:05:43;;;;;;;5.70;2.33;;;29.40;99.10;;;;;;4896363;29;20423;-72
2022/08/08 08:08:16;;;;;;;6.50;2.60;;;29.40;99.40;;;;;;4896906;29;20938;-73
2022/08/08 08:10:44;;;;;;;4.10;2.20;;;29.60;98.80;;;;;;4894708;29;20534;-72
2022/08/08 08:13:22;;;;;;;2.27;2.17;;;29.70;99.00;;;;;;4896537;29;20411;-74
2022/08/08 08:15:59;;;;;;;4.40;2.33;;;29.40;98.10;;;;;;4896750;29;20875;-72
2022/08/08 08:18:36;;;;;;;3.03;2.30;;;29.50;98.40;;;;;;4896305;29;20438;-71
2022/08/08 08:21:02;;;;;;;8.73;2.07;;;29.50;98.60;;;;;;4895578;29;20446;-72
2022/08/08 08:23:28;;;;;;;2.63;2.13;;;29.50;97.60;;;;;;4896474;29;20859;-72
2022/08/08 08:25:53;;;;;;;3.93;2.30;;;29.20;97.60;;;;;;4896456;29;20182;-70
2022/08/08 08:28:21;;;;;;;5.70;2.67;;;29.40;97.60;;;;;;4896566;29;20640;-72
2022/08/08 08:30:46;;;;;;;4.53;2.00;;;29.60;96.80;;;;;;4895039;29;20195;-72
2022/08/08 08:33:12;;;;;;;5.00;2.53;;;30.10;96.50;;;;;;4895887;29;20451;-72
2022/08/08 08:35:38;;;;;;;3.57;2.30;;;29.90;96.60;;;;;;4895104;29;20274;-72
2022/08/08 08:38:04;;;;;;;4.40;2.40;;;30.20;96.00;;;;;;4896145;29;20674;-73
2022/08/08 08:40:30;;;;;;;2.60;2.40;;;29.90;95.80;;;;;;4895808;29;20502;-72
2022/08/08 08:42:57;;;;;;;2.30;2.10;;;30.30;96.90;;;;;;4894862;29;20289;-72
2022/08/08 08:45:23;;;;;;;4.20;2.27;;;30.60;94.80;;;;;;4896186;29;20426;-72
2022/08/08 08:47:52;;;;;;;1.97;1.87;;;30.60;94.80;;;;;;4896202;29;20427;-73
2022/08/08 08:50:18;;;;;;;2.60;2.20;;;30.70;95.00;;;;;;4895859;29;20415;-72
2022/08/08 08:52:45;;;;;;;2.80;2.17;;;31.00;94.40;;;;;;4895291;29;20905;-72
2022/08/08 08:55:15;;;;;;;3.20;1.80;;;31.20;93.80;;;;;;4895464;29;20416;-73
2022/08/08 08:57:43;;;;;;;2.87;2.13;;;31.50;93.40;;;;;;4895961;29;20426;-73
2022/08/08 09:00:10;;;;;;;1.87;1.77;;;31.40;92.50;;;;;;4895724;29;20506;-73
2022/08/08 09:02:38;;;;;;;2.40;2.20;;;31.30;92.20;;;;;;4895605;29;20435;-72
2022/08/08 09:05:09;;;;;;;8.27;2.20;;;31.50;92.20;;;;;;4896759;29;20458;-73
2022/08/08 09:07:35;;;;;;;2.17;2.03;;;31.80;92.10;;;;;;4895830;29;20940;-71
2022/08/08 09:10:02;;;;;;;2.87;2.57;;;31.40;92.00;;;;;;4895372;29;20457;-73
2022/08/08 09:12:30;;;;;;;7.93;1.93;;;31.50;91.00;;;;;;4894892;29;21130;-72
2022/08/08 09:14:57;;;;;;;4.00;2.10;;;31.50;91.50;;;;;;4895449;29;21133;-72
2022/08/08 09:17:26;;;;;;;2.73;2.10;;;31.50;91.70;;;;;;4895579;29;20513;-73
2022/08/08 09:19:57;;;;;;;2.17;1.97;;;32.20;91.00;;;;;;4895592;29;20430;-72
2022/08/08 09:22:24;;;;;;;2.03;1.53;;;33.20;89.80;;;;;;4894308;29;20976;-73
2022/08/08 09:24:51;;;;;;;2.03;1.83;;;33.30;88.00;;;;;;4893875;29;20427;-72
2022/08/08 09:27:18;;;;;;;1.40;1.30;;;33.30;84.30;;;;;;4895503;29;20464;-72
2022/08/08 09:29:50;;;;;;;2.10;2.00;;;32.70;83.80;;;;;;4895776;29;20506;-73
2022/08/08 09:32:22;;;;;;;2.73;1.93;;;32.70;84.80;;;;;;4894492;29;20467;-72
2022/08/08 09:34:49;;;;;;;1.67;1.33;;;32.80;83.90;;;;;;4895535;29;20543;-72
2022/08/08 09:37:18;;;;;;;1.73;1.63;;;33.00;86.00;;;;;;4894467;29;20426;-72
2022/08/08 09:40:09;;;;;;;2.27;1.70;;;33.20;84.70;;;;;;4895436;29;20418;-72
2022/08/08 09:42:37;;;;;;;2.53;1.70;;;33.50;84.30;;;;;;4894365;29;20824;-72
2022/08/08 09:45:11;;;;;;;1.37;1.27;;;33.70;81.70;;;;;;4895450;29;20403;-73
2022/08/08 09:47:39;;;;;;;2.03;1.90;;;33.60;82.10;;;;;;4895142;29;20411;-72
2022/08/08 09:50:18;;;;;;;1.57;1.40;;;34.10;79.00;;;;;;4894209;29;20419;-72
2022/08/08 09:52:49;;;;;;;3.33;1.37;;;33.80;77.30;;;;;;4893816;29;20845;-72
2022/08/08 09:55:15;;;;;;;2.20;1.20;;;33.70;76.20;;;;;;4895141;29;20418;-73
2022/08/08 09:57:44;;;;;;;2.13;1.50;;;34.20;76.90;;;;;;4895240;29;20912;-73
2022/08/08 10:00:11;;;;;;;2.00;1.73;;;34.50;75.30;;;;;;4894543;29;20491;-73
2022/08/08 10:02:50;;;;;;;3.07;1.53;;;34.30;74.10;;;;;;4894481;29;20419;-73
2022/08/08 10:05:26;;;;;;;1.20;1.10;;;34.00;74.60;;;;;;4894566;29;20415;-73
2022/08/08 10:07:52;;;;;;;1.80;1.70;;;34.00;75.70;;;;;;4895278;29;20411;-73
2022/08/08 10:10:39;;;;;;;1.93;1.80;;;34.30;74.50;;;;;;4895118;29;20407;-73
2022/08/08 10:13:19;;;;;;;2.17;1.97;;;33.70;74.70;;;;;;4895332;29;20175;-73
2022/08/08 10:15:52;;;;;;;2.13;1.70;;;33.60;75.30;;;;;;4894803;29;20410;-73
2022/08/08 10:18:26;;;;;;;1.53;1.43;;;33.50;75.90;;;;;;4895168;29;20407;-72
2022/08/08 10:20:57;;;;;;;2.27;2.10;;;33.80;75.50;;;;;;4894303;29;21373;-73
2022/08/08 10:23:39;;;;;;;1.70;1.60;;;34.30;75.20;;;;;;4894419;29;20446;-72
2022/08/08 10:26:05;;;;;;;1.50;1.40;;;34.60;74.20;;;;;;4895000;29;20502;-73
2022/08/08 10:28:31;;;;;;;1.77;1.67;;;34.80;74.80;;;;;;4894980;29;20419;-74
2022/08/08 10:30:59;;;;;;;1.83;1.73;;;35.00;73.40;;;;;;4893892;29;21003;-73
2022/08/08 10:33:31;;;;;;;1.50;1.40;;;34.90;72.70;;;;;;4897992;29;20512;-72
2022/08/08 10:36:00;;;;;;;9.10;1.80;;;34.90;74.00;;;;;;4897798;29;20436;-73
2022/08/08 10:38:29;;;;;;;1.53;1.43;;;34.70;74.00;;;;;;4898519;29;20454;-73
2022/08/08 10:40:59;;;;;;;1.63;1.53;;;34.90;74.00;;;;;;4897601;29;20449;-72
2022/08/08 10:43:36;;;;;;;2.30;1.20;;;34.70;71.80;;;;;;4897593;29;20441;-73
2022/08/08 10:46:02;;;;;;;3.73;1.60;;;34.70;71.20;;;;;;4898436;29;20478;-73
2022/08/08 10:48:33;;;;;;;2.30;1.70;;;34.00;71.50;;;;;;4898211;29;20779;-73
2022/08/08 10:50:58;;;;;;;2.60;1.30;;;33.00;73.60;;;;;;4897418;29;20241;-73
2022/08/08 10:53:34;;;;;;;1.73;1.63;;;32.50;72.80;;;;;;4898129;29;21067;-72
2022/08/08 10:55:59;;;;;;;1.70;1.60;;;32.00;72.80;;;;;;4896870;29;20277;-73
2022/08/08 10:58:27;;;;;;;1.50;1.40;;;31.80;73.10;;;;;;4898336;29;20486;-72
2022/08/08 11:00:55;;;;;;;2.90;1.50;;;32.30;72.30;;;;;;4897464;29;20246;-72
2022/08/08 11:03:21;;;;;;;1.70;1.60;;;32.60;71.50;;;;;;4897477;29;20415;-72
2022/08/08 11:05:48;;;;;;;2.70;1.70;;;32.80;72.70;;;;;;4898638;29;20419;-73
2022/08/08 11:08:30;;;;;;;1.60;1.50;;;33.60;71.10;;;;;;4897875;29;20853;-72
2022/08/08 11:11:08;;;;;;;1.77;1.50;;;33.50;69.40;;;;;;4897207;29;20470;-72
2022/08/08 11:13:41;;;;;;;3.00;2.00;;;33.30;70.00;;;;;;4896044;29;20971;-70
2022/08/08 11:16:11;;;;;;;1.40;1.30;;;33.20;70.90;;;;;;4897939;29;20411;-72
2022/08/08 11:18:38;;;;;;;1.10;1.10;;;33.00;69.60;;;;;;4897760;29;20416;-72
2022/08/08 11:21:06;;;;;;;1.23;1.13;;;32.90;70.60;;;;;;4897058;29;20478;-72
2022/08/08 11:23:33;;;;;;;1.23;1.13;;;33.10;67.80;;;;;;4897638;29;20565;-72
2022/08/08 11:26:05;;;;;;;1.10;1.00;;;33.00;67.10;;;;;;4897116;29;20430;-72
2022/08/08 11:28:36;;;;;;;1.27;1.20;;;32.50;65.50;;;;;;4897540;29;20415;-72
2022/08/08 11:31:03;;;;;;;1.40;1.30;;;32.20;66.80;;;;;;4896687;29;20471;-73
2022/08/08 11:33:31;;;;;;;1.37;1.10;;;32.60;67.60;;;;;;4897253;29;20423;-72
2022/08/08 11:35:57;;;;;;;5.30;1.10;;;33.00;66.90;;;;;;4897251;29;20839;-71
2022/08/08 11:38:24;;;;;;;2.70;1.30;;;33.00;65.40;;;;;;4897265;29;20418;-72
2022/08/08 11:40:51;;;;;;;1.70;1.60;;;33.20;65.00;;;;;;4896540;29;20473;-72
2022/08/08 11:43:17;;;;;;;7.03;0.90;;;32.80;63.80;;;;;;4896465;29;20486;-72
2022/08/08 11:45:46;;;;;;;2.43;1.00;;;32.50;65.40;;;;;;4897261;29;20426;-73
2022/08/08 11:48:17;;;;;;;3.87;1.10;;;32.80;65.80;;;;;;4896975;29;20186;-72
2022/08/08 11:50:43;;;;;;;1.80;1.23;;;33.10;64.30;;;;;;4896617;29;20462;-72
2022/08/08 11:53:09;;;;;;;1.30;1.20;;;33.00;63.30;;;;;;4896374;29;20419;-73
2022/08/08 11:55:46;;;;;;;5.43;1.10;;;32.30;63.40;;;;;;4897174;29;20920;-72
2022/08/08 11:58:12;;;;;;;2.77;1.30;;;31.50;64.10;;;;;;4897002;29;20438;-72
2022/08/08 12:01:04;;;;;;;2.03;1.50;;;31.50;66.70;;;;;;4896529;29;20431;-72
2022/08/08 12:03:32;;;;;;;1.60;1.47;;;31.60;66.50;;;;;;4895158;29;20191;-72
2022/08/08 12:05:58;;;;;;;7.20;1.60;;;31.70;65.30;;;;;;4897085;29;20423;-72
2022/08/08 12:08:37;;;;;;;1.73;1.57;;;31.80;65.60;;;;;;4897017;29;20415;-73
2022/08/08 12:11:09;;;;;;;1.50;1.40;;;31.70;66.40;;;;;;4895955;29;20470;-73
2022/08/08 12:13:34;;;;;;;4.03;1.53;;;31.50;66.10;;;;;;4896178;29;20415;-72
2022/08/08 12:16:15;;;;;;;1.40;1.20;;;31.70;67.50;;;;;;4896523;29;20791;-72
2022/08/08 12:18:50;;;;;;;3.27;1.63;;;31.80;65.80;;;;;;4896606;29;20178;-73
2022/08/08 12:21:32;;;;;;;2.10;1.50;;;31.60;64.70;;;;;;4895785;29;20435;-71
2022/08/08 12:24:10;;;;;;;1.77;1.67;;;31.00;65.90;;;;;;4896509;29;20446;-72
2022/08/08 12:26:42;;;;;;;1.43;1.33;;;30.30;66.90;;;;;;4896553;29;20422;-72
2022/08/08 12:29:26;;;;;;;1.40;1.30;;;30.10;68.30;;;;;;4896155;29;20419;-72
2022/08/08 12:32:10;;;;;;;3.93;1.63;;;30.10;68.20;;;;;;4895451;29;20537;-73
2022/08/08 12:34:58;;;;;;;2.40;1.50;;;30.30;68.60;;;;;;4896090;29;20463;-72
2022/08/08 12:37:30;;;;;;;1.53;1.43;;;30.70;68.70;;;;;;4896444;29;20419;-72
2022/08/08 12:40:20;;;;;;;2.80;1.40;;;30.70;67.10;;;;;;4896021;29;20438;-73
2022/08/08 12:42:47;;;;;;;1.23;1.13;;;31.00;66.30;;;;;;4893784;29;20481;-72
2022/08/08 12:45:13;;;;;;;1.40;1.33;;;30.80;65.90;;;;;;4895706;29;20430;-70
2022/08/08 12:47:39;;;;;;;1.63;1.07;;;30.70;66.50;;;;;;4896349;29;20792;-73
2022/08/08 12:50:05;;;;;;;1.60;1.50;;;30.40;66.80;;;;;;4895899;29;20790;-72
2022/08/08 12:52:40;;;;;;;1.43;1.33;;;30.30;66.90;;;;;;4895383;29;20470;-72
2022/08/08 12:55:10;;;;;;;1.13;1.03;;;30.30;67.70;;;;;;4894854;29;20916;-72
2022/08/08 12:57:36;;;;;;;2.10;1.37;;;30.50;66.80;;;;;;4901954;29;20559;-72
2022/08/08 13:00:05;;;;;;;2.03;1.73;;;30.50;66.40;;;;;;4903184;29;20423;-72
2022/08/08 13:02:33;;;;;;;2.80;1.30;;;30.70;66.40;;;;;;4898990;29;20451;-72
2022/08/08 13:05:01;;;;;;;3.20;1.20;;;30.50;66.20;;;;;;4896187;29;20466;-72
2022/08/08 13:07:37;;;;;;;1.30;1.27;;;30.60;67.30;;;;;;4896316;29;20423;-72
2022/08/08 13:10:29;;;;;;;1.13;1.13;;;30.60;65.20;;;;;;4895825;29;20979;-72
2022/08/08 13:13:00;;;;;;;1.13;1.13;;;30.40;65.80;;;;;;4895334;29;20451;-72
2022/08/08 13:15:28;;;;;;;2.43;1.07;;;30.20;66.00;;;;;;4895599;29;20412;-71
2022/08/08 13:17:55;;;;;;;3.77;1.73;;;30.30;68.00;;;;;;4895413;29;20411;-70
2022/08/08 13:20:22;;;;;;;7.50;1.40;;;30.40;69.80;;;;;;4895126;29;20418;-71
2022/08/08 13:22:48;;;;;;;1.27;1.17;;;30.40;67.40;;;;;;4895335;29;20427;-72
2022/08/08 13:25:15;;;;;;;1.27;1.17;;;30.40;65.80;;;;;;4895473;29;20486;-69
2022/08/08 13:27:41;;;;;;;1.77;1.40;;;30.40;65.40;;;;;;4895389;29;20266;-72
2022/08/08 13:30:07;;;;;;;4.03;1.07;;;30.40;65.20;;;;;;4895276;29;20510;-72
2022/08/08 13:32:34;;;;;;;2.70;2.50;;;30.30;67.00;;;;;;4893773;29;20233;-71
2022/08/08 13:35:01;;;;;;;1.43;1.43;;;30.30;66.20;;;;;;4895309;29;20447;-72
2022/08/08 13:37:28;;;;;;;1.97;1.30;;;30.20;64.50;;;;;;4895476;29;20419;-73
2022/08/08 13:39:56;;;;;;;1.63;1.27;;;30.10;66.70;;;;;;4895187;29;20418;-72
2022/08/08 13:42:23;;;;;;;1.17;1.07;;;30.10;65.20;;;;;;4893768;29;20450;-71
2022/08/08 13:45:00;;;;;;;1.20;1.10;;;29.80;64.80;;;;;;4895087;29;20423;-73
2022/08/08 13:47:27;;;;;;;1.30;1.20;;;29.70;64.80;;;;;;4895154;29;20446;-72
2022/08/08 13:49:57;;;;;;;2.30;1.20;;;29.70;64.80;;;;;;4894858;29;20426;-72
2022/08/08 13:52:24;;;;;;;2.60;1.00;;;29.80;65.20;;;;;;4894282;29;20837;-72
2022/08/08 13:54:53;;;;;;;1.40;1.30;;;29.80;65.60;;;;;;4895256;29;20423;-72
2022/08/08 13:57:24;;;;;;;1.73;1.30;;;29.90;65.40;;;;;;4895101;29;20824;-70
2022/08/08 13:59:50;;;;;;;1.23;1.13;;;30.00;65.30;;;;;;4895242;29;20749;-73
2022/08/08 14:02:18;;;;;;;3.70;1.13;;;29.90;65.40;;;;;;4894609;29;20435;-72
2022/08/08 14:04:56;;;;;;;1.80;1.40;;;29.90;66.00;;;;;;4895361;29;20430;-72
2022/08/08 14:07:27;;;;;;;1.97;1.70;;;29.90;64.70;;;;;;4896891;29;20935;-72
2022/08/08 14:10:05;;;;;;;1.40;1.10;;;29.80;64.90;;;;;;4898959;29;20433;-71
2022/08/08 14:12:33;;;;;;;1.20;1.10;;;29.60;64.40;;;;;;4898542;29;20466;-72
2022/08/08 14:14:59;;;;;;;1.60;1.50;;;29.40;65.10;;;;;;4899138;29;20631;-71
2022/08/08 14:17:25;;;;;;;5.33;1.20;;;29.30;64.30;;;;;;4899473;29;20822;-72
2022/08/08 14:19:58;;;;;;;2.13;1.20;;;29.40;65.60;;;;;;4898584;29;20421;-72
2022/08/08 14:22:27;;;;;;;7.83;7.13;;;29.30;65.40;;;;;;4898067;29;20759;-72
2022/08/08 14:24:59;;;;;;;1.97;1.57;;;29.40;65.50;;;;;;4898401;29;20426;-71
2022/08/08 14:27:31;;;;;;;1.37;1.27;;;29.50;65.10;;;;;;4898773;29;20950;-71
2022/08/08 14:30:10;;;;;;;2.60;1.27;;;29.30;64.10;;;;;;4898416;29;20419;-72
2022/08/08 14:32:43;;;;;;;6.03;1.37;;;29.30;64.80;;;;;;4897146;29;20497;-72
2022/08/08 14:35:09;;;;;;;3.80;2.80;;;29.20;64.60;;;;;;4898421;29;20423;-71
2022/08/08 14:37:42;;;;;;;9.50;1.37;;;29.20;63.30;;;;;;4898552;29;20553;-72
2022/08/08 14:40:09;;;;;;;1.10;1.00;;;29.20;64.60;;;;;;4897917;29;20206;-72
2022/08/08 14:42:38;;;;;;;1.77;1.50;;;29.10;63.90;;;;;;4897757;29;20522;-70
2022/08/08 14:45:12;;;;;;;1.90;1.17;;;29.00;64.60;;;;;;4898203;29;20932;-72
2022/08/08 14:47:59;;;;;;;1.00;1.00;;;29.00;63.80;;;;;;4898323;29;20426;-72